Time;durP1;ratioP1;P1;durP2;ratioP2;P2;SDS_P1;SDS_P2;PMS_P1;PMS_P2;Temp;Humidity;BMP_temperature;BMP_pressure;BME280_temperature;BME280_humidity;BME280_pressure;Samples;Min_cycle;Max_cycle;Signal;HPM_P1;HPM_P2
2021/12/08 00:01:11;;;;;;;7.35;2.13;;;3.90;99.90;;;;;;4960018;28;20046;-82
2021/12/08 00:03:38;;;;;;;6.90;2.45;;;4.70;99.90;;;;;;4976133;28;20042;-82
2021/12/08 00:06:05;;;;;;;5.45;2.45;;;3.90;99.90;;;;;;4975237;28;20042;-82
2021/12/08 00:08:33;;;;;;;5.43;2.13;;;3.90;99.90;;;;;;4975808;28;20134;-82
2021/12/08 00:13:32;;;;;;;6.43;1.77;;;3.90;99.90;;;;;;4976154;28;20046;-82
2021/12/08 00:16:06;;;;;;;9.15;2.30;;;3.80;99.90;;;;;;4976545;28;20038;-82
2021/12/08 00:18:34;;;;;;;7.13;2.17;;;3.90;99.90;;;;;;4979634;28;20053;-82
2021/12/08 00:21:03;;;;;;;6.13;2.10;;;3.90;99.90;;;;;;4978506;28;20084;-82
2021/12/08 00:23:30;;;;;;;6.15;1.73;;;3.90;99.90;;;;;;4979763;28;20034;-82
2021/12/08 00:25:56;;;;;;;8.52;2.67;;;3.90;99.90;;;;;;4979055;28;20071;-82
2021/12/08 00:28:23;;;;;;;4.68;2.03;;;3.90;99.90;;;;;;4979086;28;20077;-82
2021/12/08 00:30:52;;;;;;;6.95;2.67;;;3.90;99.90;;;;;;4978896;28;20042;-82
2021/12/08 00:33:20;;;;;;;6.65;1.83;;;3.90;99.90;;;;;;4979086;28;20103;-82
2021/12/08 00:35:48;;;;;;;5.40;2.50;;;4.30;99.90;;;;;;4977890;28;20105;-82
2021/12/08 00:38:17;;;;;;;7.75;2.33;;;4.50;99.90;;;;;;4978939;28;20050;-82
2021/12/08 00:40:44;;;;;;;6.10;2.15;;;4.00;99.90;;;;;;4979087;28;20401;-81
2021/12/08 00:43:10;;;;;;;9.63;3.15;;;4.00;99.90;;;;;;4994994;28;20092;-81
2021/12/08 00:45:36;;;;;;;8.68;2.50;;;4.00;99.90;;;;;;4978579;28;20497;-81
2021/12/08 00:48:03;;;;;;;7.78;2.15;;;4.00;99.90;;;;;;4995071;28;20042;-81
2021/12/08 00:50:34;;;;;;;8.05;3.22;;;4.00;99.90;;;;;;4977986;28;20046;-81
2021/12/08 00:53:00;;;;;;;4.57;2.00;;;4.00;99.90;;;;;;4979002;28;20030;-81
2021/12/08 00:55:27;;;;;;;5.82;2.30;;;4.10;99.90;;;;;;4978479;28;20061;-81
2021/12/08 00:57:54;;;;;;;6.90;2.28;;;4.10;99.90;;;;;;4978892;28;20038;-81
2021/12/08 01:00:24;;;;;;;6.05;1.95;;;4.10;99.90;;;;;;4978426;28;20057;-81
2021/12/08 01:02:50;;;;;;;7.63;1.95;;;4.10;99.90;;;;;;4978692;28;20042;-81
2021/12/08 01:05:21;;;;;;;7.82;2.80;;;4.20;99.90;;;;;;4977552;28;20068;-81
2021/12/08 01:07:47;;;;;;;7.03;2.78;;;4.10;99.90;;;;;;4978167;28;20042;-81
2021/12/08 01:10:17;;;;;;;4.90;2.03;;;4.20;99.90;;;;;;4978380;28;20046;-81
2021/12/08 01:12:43;;;;;;;6.90;2.00;;;4.20;99.90;;;;;;4978602;28;20508;-82
2021/12/08 01:15:09;;;;;;;5.70;1.70;;;4.10;99.90;;;;;;4978070;28;20047;-82
2021/12/08 01:17:37;;;;;;;3.67;1.52;;;4.20;99.90;;;;;;4978318;28;20112;-82
2021/12/08 01:20:07;;;;;;;5.20;2.13;;;4.10;99.90;;;;;;4977532;28;20049;-82
2021/12/08 01:22:33;;;;;;;5.60;2.00;;;4.10;99.90;;;;;;4978070;28;20104;-82
2021/12/08 01:24:58;;;;;;;5.38;1.48;;;4.10;99.90;;;;;;4978196;28;20489;-82
2021/12/08 01:27:24;;;;;;;8.63;2.03;;;4.20;99.90;;;;;;4977860;28;20038;-82
2021/12/08 01:29:50;;;;;;;7.80;2.47;;;4.10;99.90;;;;;;4977607;28;20068;-82
2021/12/08 01:32:16;;;;;;;8.00;2.97;;;4.10;99.90;;;;;;4977961;28;20042;-82
2021/12/08 01:34:41;;;;;;;5.88;2.17;;;4.10;99.90;;;;;;4977546;28;20035;-82
2021/12/08 01:37:07;;;;;;;6.88;2.60;;;4.30;99.90;;;;;;4977458;28;20050;-82
2021/12/08 01:39:33;;;;;;;6.40;2.28;;;4.10;99.90;;;;;;4977815;28;20038;-82
2021/12/08 01:41:59;;;;;;;4.47;1.92;;;4.10;99.90;;;;;;4977691;28;20489;-82
2021/12/08 01:47:09;;;;;;;4.95;2.15;;;4.10;99.90;;;;;;4977977;28;20046;-82
2021/12/08 01:49:34;;;;;;;4.47;1.80;;;4.10;99.90;;;;;;4977507;28;20052;-82
2021/12/08 01:52:00;;;;;;;6.88;2.92;;;4.20;99.90;;;;;;4993253;28;20053;-82
2021/12/08 01:54:26;;;;;;;4.55;1.80;;;4.10;99.90;;;;;;4977154;28;20061;-82
2021/12/08 01:56:52;;;;;;;7.72;1.92;;;4.10;99.90;;;;;;4977348;28;20042;-82
2021/12/08 01:59:18;;;;;;;8.52;2.47;;;4.30;99.90;;;;;;4995292;28;20386;-82
2021/12/08 02:01:45;;;;;;;6.80;2.75;;;4.00;99.90;;;;;;4964221;28;20041;-82
2021/12/08 02:04:12;;;;;;;5.90;2.08;;;4.10;99.90;;;;;;4980967;28;20501;-82
2021/12/08 02:06:45;;;;;;;5.88;2.50;;;4.00;99.90;;;;;;4979498;28;20044;-82
2021/12/08 02:09:15;;;;;;;8.02;2.53;;;4.00;99.90;;;;;;4997057;28;20087;-82
2021/12/08 02:11:48;;;;;;;7.05;2.67;;;4.00;99.90;;;;;;4980356;28;20053;-82
2021/12/08 02:14:15;;;;;;;6.40;2.80;;;4.00;99.90;;;;;;4980533;28;20034;-82
2021/12/08 02:16:41;;;;;;;5.05;1.58;;;4.00;99.90;;;;;;4996209;28;20038;-82
2021/12/08 02:19:07;;;;;;;6.40;2.40;;;4.10;99.90;;;;;;4980458;28;20038;-82
2021/12/08 02:21:38;;;;;;;2.92;1.42;;;4.00;99.90;;;;;;4995598;28;20125;-82
2021/12/08 02:24:08;;;;;;;5.88;1.92;;;4.10;99.90;;;;;;4996704;28;20437;-82
2021/12/08 02:26:35;;;;;;;4.32;2.03;;;4.00;99.90;;;;;;4980340;28;20041;-82
2021/12/08 02:29:05;;;;;;;6.75;3.00;;;4.10;99.90;;;;;;4980395;28;20413;-82
2021/12/08 02:31:39;;;;;;;7.68;3.15;;;4.00;99.90;;;;;;4996138;28;20042;-82
2021/12/08 02:47:54;;;;;;;8.82;3.17;;;4.10;99.90;;;;;;5012498;28;20050;-82
2021/12/08 02:50:36;;;;;;;10.25;3.17;;;4.10;99.90;;;;;;4995263;28;20050;-82
2021/12/08 02:53:03;;;;;;;5.43;2.70;;;4.00;99.90;;;;;;4996308;28;20096;-82
2021/12/08 02:55:32;;;;;;;7.05;2.00;;;4.10;99.90;;;;;;4995498;28;20085;-82
2021/12/08 02:58:01;;;;;;;6.13;2.28;;;4.10;99.90;;;;;;4979941;28;20061;-82
2021/12/08 03:00:29;;;;;;;9.13;3.13;;;4.20;99.90;;;;;;4995783;28;20041;-82
2021/12/08 03:02:57;;;;;;;8.90;3.67;;;4.10;99.90;;;;;;4979682;28;20042;-82
2021/12/08 03:05:24;;;;;;;10.90;4.43;;;4.10;99.90;;;;;;4994904;28;20077;-82
2021/12/08 03:07:52;;;;;;;7.95;4.07;;;4.10;99.90;;;;;;4996191;28;20046;-82
2021/12/08 03:10:22;;;;;;;8.65;3.97;;;4.40;99.90;;;;;;4979432;28;20049;-82
2021/12/08 03:12:48;;;;;;;7.10;2.72;;;4.10;99.90;;;;;;4996000;28;20046;-82
2021/12/08 03:15:15;;;;;;;8.23;4.40;;;4.10;99.90;;;;;;4995811;28;20090;-82
2021/12/08 03:17:41;;;;;;;11.68;4.25;;;4.30;99.90;;;;;;4995787;28;20050;-82
2021/12/08 03:20:11;;;;;;;7.57;3.13;;;4.30;99.90;;;;;;4994999;28;20497;-82
2021/12/08 03:22:43;;;;;;;6.75;3.60;;;4.30;99.90;;;;;;4979549;28;20056;-82
2021/12/08 03:25:12;;;;;;;13.13;2.95;;;4.30;99.90;;;;;;5010010;28;20038;-82
2021/12/08 03:27:46;;;;;;;6.57;3.30;;;4.40;99.90;;;;;;4976528;28;20501;-82
2021/12/08 03:30:16;;;;;;;6.88;2.95;;;4.40;99.90;;;;;;4976322;28;20045;-82
2021/12/08 03:32:42;;;;;;;8.32;4.40;;;4.50;99.90;;;;;;4976636;28;20045;-82
2021/12/08 03:35:15;;;;;;;9.25;4.65;;;4.40;99.90;;;;;;4975293;28;20034;-82
2021/12/08 03:37:44;;;;;;;9.23;5.47;;;4.40;99.90;;;;;;4976173;28;20053;-82
2021/12/08 03:40:17;;;;;;;7.50;3.80;;;4.40;99.90;;;;;;4976041;28;20042;-82
2021/12/08 03:42:46;;;;;;;5.63;2.95;;;4.40;99.90;;;;;;4976583;28;20073;-82
2021/12/08 03:45:29;;;;;;;9.13;4.57;;;4.60;99.90;;;;;;4976244;28;20093;-82
2021/12/08 03:48:01;;;;;;;7.78;3.80;;;4.60;99.90;;;;;;4976280;28;20125;-82
2021/12/08 03:50:30;;;;;;;12.18;5.45;;;4.50;99.90;;;;;;4976107;28;20047;-82
2021/12/08 03:52:57;;;;;;;10.90;5.05;;;4.60;99.90;;;;;;4979769;28;20038;-82
2021/12/08 03:55:23;;;;;;;5.82;2.85;;;4.60;99.90;;;;;;4979412;28;20055;-82
2021/12/08 03:57:49;;;;;;;8.82;4.50;;;4.60;99.90;;;;;;5000942;28;20053;-82
2021/12/08 04:00:19;;;;;;;9.07;4.75;;;4.60;99.90;;;;;;4995725;28;20042;-82
2021/12/08 04:02:45;;;;;;;8.23;4.53;;;4.70;99.90;;;;;;4979602;28;20038;-82
2021/12/08 04:05:18;;;;;;;10.02;6.43;;;4.70;99.90;;;;;;4947044;28;20196;-82
2021/12/08 04:07:46;;;;;;;12.75;7.10;;;4.60;99.90;;;;;;4979870;28;20512;-82
2021/12/08 04:10:20;;;;;;;12.88;8.00;;;4.70;99.90;;;;;;4979196;28;20041;-82
2021/12/08 04:12:55;;;;;;;10.95;6.60;;;4.70;99.90;;;;;;4979445;28;20045;-82
2021/12/08 04:15:24;;;;;;;11.18;7.90;;;4.80;99.90;;;;;;4979088;28;20069;-82
2021/12/08 04:17:53;;;;;;;10.55;7.30;;;4.80;99.90;;;;;;4979284;28;20046;-82
2021/12/08 04:20:25;;;;;;;12.32;7.43;;;4.80;99.90;;;;;;4978326;28;20034;-82
2021/12/08 04:22:54;;;;;;;10.35;6.75;;;4.80;99.90;;;;;;4979187;28;20044;-82
2021/12/08 04:25:25;;;;;;;8.80;4.10;;;4.80;99.90;;;;;;4978965;28;20122;-82
2021/12/08 04:27:54;;;;;;;11.57;6.97;;;4.90;99.90;;;;;;4979693;28;20497;-82
2021/12/08 04:30:31;;;;;;;11.95;8.55;;;4.80;99.90;;;;;;4978918;28;20046;-82
2021/12/08 04:32:57;;;;;;;11.30;6.40;;;4.80;99.90;;;;;;4979142;28;20041;-82
2021/12/08 04:35:23;;;;;;;10.95;7.70;;;4.80;99.90;;;;;;4978284;28;20101;-82
2021/12/08 04:37:56;;;;;;;11.52;8.82;;;4.80;99.90;;;;;;4978900;28;20461;-82
2021/12/08 04:40:40;;;;;;;12.30;7.93;;;4.80;99.90;;;;;;4962874;28;20053;-82
2021/12/08 04:46:22;;;;;;;13.18;8.70;;;4.80;99.90;;;;;;4978891;28;20502;-82
2021/12/08 05:09:46;;;;;;;13.73;9.07;;;5.00;99.90;;;;;;4997739;28;20057;-81
2021/12/08 05:12:20;;;;;;;12.85;10.32;;;5.10;99.90;;;;;;4997794;28;20042;-81
2021/12/08 05:14:54;;;;;;;12.75;9.32;;;5.10;99.90;;;;;;4997677;28;20041;-82
2021/12/08 05:17:25;;;;;;;13.77;9.55;;;5.10;99.90;;;;;;5014148;28;20053;-82
2021/12/08 05:19:55;;;;;;;13.55;9.05;;;5.10;99.90;;;;;;4980890;28;20054;-82
2021/12/08 05:22:31;;;;;;;13.40;9.27;;;5.00;99.90;;;;;;4981409;28;20050;-82
2021/12/08 05:24:59;;;;;;;13.38;8.30;;;5.10;99.90;;;;;;4981404;28;20061;-82
2021/12/08 05:27:43;;;;;;;14.32;8.82;;;5.10;99.90;;;;;;4981759;28;20125;-82
2021/12/08 05:30:12;;;;;;;13.48;8.27;;;5.10;99.90;;;;;;4981360;28;20049;-82
2021/12/08 05:32:39;;;;;;;10.98;8.10;;;5.20;99.90;;;;;;4997460;28;20121;-82
2021/12/08 05:35:08;;;;;;;10.63;6.90;;;5.20;99.90;;;;;;4996571;28;20051;-82
2021/12/08 05:37:34;;;;;;;12.10;8.00;;;5.20;99.90;;;;;;4981253;28;20044;-82
2021/12/08 05:40:01;;;;;;;16.27;9.10;;;5.20;99.90;;;;;;4997140;28;20495;-82
2021/12/08 05:42:32;;;;;;;15.43;10.15;;;5.20;99.90;;;;;;4997223;28;20042;-82
2021/12/08 05:45:00;;;;;;;12.93;8.68;;;5.20;99.90;;;;;;4996799;28;20072;-82
2021/12/08 05:47:28;;;;;;;11.82;7.70;;;5.20;99.90;;;;;;4997079;28;20567;-82
2021/12/08 05:49:55;;;;;;;15.63;9.43;;;5.20;99.90;;;;;;5012537;28;20088;-82
2021/12/08 05:52:23;;;;;;;15.32;8.88;;;5.20;99.90;;;;;;4978805;28;20053;-84
2021/12/08 05:54:51;;;;;;;12.25;7.93;;;5.20;99.90;;;;;;4981576;28;20081;-85
2021/12/08 05:57:28;;;;;;;16.05;8.43;;;5.20;99.90;;;;;;4998050;28;20398;-85
2021/12/08 05:59:55;;;;;;;14.32;8.70;;;5.20;99.90;;;;;;4999448;28;20485;-84
2021/12/08 06:02:27;;;;;;;13.27;8.23;;;5.20;99.90;;;;;;4996938;28;20087;-84
2021/12/08 06:04:54;;;;;;;15.20;8.68;;;5.20;99.90;;;;;;4997113;28;20485;-84
2021/12/08 06:07:22;;;;;;;12.65;8.75;;;5.20;99.90;;;;;;4971777;28;20038;-85
2021/12/08 06:09:56;;;;;;;11.73;7.63;;;5.20;99.90;;;;;;4995858;28;20050;-85
2021/12/08 06:12:22;;;;;;;11.80;6.88;;;5.20;99.90;;;;;;4995951;28;20080;-84
2021/12/08 06:14:54;;;;;;;13.65;7.10;;;5.20;99.90;;;;;;4991311;28;20045;-84
2021/12/08 06:17:23;;;;;;;11.87;7.97;;;5.20;99.90;;;;;;4996224;28;20045;-85
2021/12/08 06:19:48;;;;;;;11.90;6.93;;;5.20;99.90;;;;;;4978576;28;20667;-85
2021/12/08 06:22:17;;;;;;;10.88;7.20;;;5.20;99.90;;;;;;5007588;28;20038;-85
2021/12/08 06:24:44;;;;;;;12.02;7.55;;;5.10;99.90;;;;;;4995148;28;20034;-85
2021/12/08 06:27:11;;;;;;;14.32;8.32;;;5.20;99.90;;;;;;4993385;28;20116;-85
2021/12/08 06:29:37;;;;;;;14.18;8.75;;;5.00;99.90;;;;;;4962347;28;20042;-85
2021/12/08 06:32:06;;;;;;;12.18;8.25;;;5.00;99.90;;;;;;5006262;28;20444;-83
2021/12/08 06:34:32;;;;;;;16.10;8.13;;;5.00;99.90;;;;;;5008199;28;20053;-83
2021/12/08 06:37:10;;;;;;;14.55;8.18;;;5.10;99.90;;;;;;4992704;28;20480;-83
2021/12/08 06:39:47;;;;;;;13.07;8.10;;;5.10;99.90;;;;;;4978225;28;20048;-81
2021/12/08 06:42:16;;;;;;;11.63;7.18;;;5.20;99.90;;;;;;5004511;28;20532;-82
2021/12/08 06:44:45;;;;;;;12.73;7.13;;;5.30;99.90;;;;;;5010587;28;20038;-82
2021/12/08 06:47:16;;;;;;;13.15;7.53;;;5.30;99.90;;;;;;5011037;28;20531;-82
2021/12/08 06:49:45;;;;;;;12.77;7.20;;;5.40;99.90;;;;;;5026597;28;20053;-81
2021/12/08 06:52:20;;;;;;;12.40;7.13;;;5.40;99.90;;;;;;4979531;28;20508;-80
2021/12/08 06:54:57;;;;;;;13.38;7.22;;;5.40;99.90;;;;;;4993484;28;20066;-80
2021/12/08 06:57:34;;;;;;;14.60;7.13;;;5.40;99.90;;;;;;4977093;28;20038;-81
2021/12/08 07:00:18;;;;;;;13.02;6.38;;;5.30;99.90;;;;;;4994873;28;20541;-82
2021/12/08 07:05:26;;;;;;;10.85;6.45;;;5.20;99.90;;;;;;4993657;28;20378;-82
2021/12/08 07:07:54;;;;;;;11.30;6.40;;;5.20;99.90;;;;;;4989314;28;20045;-82
2021/12/08 07:10:27;;;;;;;11.27;6.43;;;5.20;99.90;;;;;;4995783;28;20042;-81
2021/12/08 07:12:57;;;;;;;11.57;6.03;;;5.20;99.90;;;;;;4976513;28;20501;-81
2021/12/08 07:15:40;;;;;;;10.38;5.70;;;5.20;99.90;;;;;;5003825;28;20074;-81
2021/12/08 07:18:15;;;;;;;10.25;5.75;;;5.20;99.90;;;;;;4993007;28;20042;-81
2021/12/08 07:20:46;;;;;;;10.75;5.30;;;5.20;99.90;;;;;;4962783;28;20085;-81
2021/12/08 07:23:24;;;;;;;9.73;5.07;;;5.20;99.90;;;;;;4966907;28;20463;-81
2021/12/08 07:25:53;;;;;;;12.07;5.50;;;5.20;99.90;;;;;;5011953;28;20045;-81
2021/12/08 07:28:21;;;;;;;11.38;5.35;;;5.20;99.90;;;;;;5014587;28;20563;-81
2021/12/08 07:30:55;;;;;;;10.52;4.65;;;5.20;99.90;;;;;;5009885;28;20053;-81
2021/12/08 07:33:21;;;;;;;13.77;5.32;;;5.20;99.90;;;;;;5003984;28;20432;-81
2021/12/08 07:35:52;;;;;;;9.82;4.85;;;5.30;99.90;;;;;;4982374;28;20052;-83
2021/12/08 07:38:21;;;;;;;13.43;4.82;;;5.30;99.90;;;;;;4984038;28;20112;-83
2021/12/08 07:40:54;;;;;;;12.80;4.57;;;5.30;99.90;;;;;;4978976;28;20034;-83
2021/12/08 07:43:27;;;;;;;13.95;4.00;;;5.30;99.90;;;;;;5014416;28;20041;-83
2021/12/08 07:46:03;;;;;;;10.27;3.72;;;5.30;99.90;;;;;;4997375;28;20085;-82
2021/12/08 07:48:36;;;;;;;10.88;3.80;;;5.30;99.90;;;;;;5010659;28;20045;-83
2021/12/08 07:51:28;;;;;;;11.05;3.53;;;5.30;99.90;;;;;;4997311;28;20069;-83
2021/12/08 07:53:55;;;;;;;7.00;3.08;;;5.30;99.90;;;;;;4997185;28;20046;-83
2021/12/08 07:56:22;;;;;;;11.32;3.13;;;5.30;99.90;;;;;;4997492;28;20516;-82
2021/12/08 07:58:53;;;;;;;8.85;2.65;;;5.30;99.90;;;;;;4989379;28;20038;-81
2021/12/08 08:01:24;;;;;;;10.43;2.90;;;5.30;99.90;;;;;;4993692;28;20495;-81
2021/12/08 08:03:51;;;;;;;10.98;2.90;;;5.30;99.90;;;;;;5001781;28;20041;-80
2021/12/08 08:06:29;;;;;;;7.93;2.70;;;5.30;99.90;;;;;;5010802;28;20654;-81
2021/12/08 08:08:56;;;;;;;9.88;2.92;;;5.40;99.90;;;;;;5012484;28;20105;-81
2021/12/08 08:11:30;;;;;;;8.00;3.15;;;5.30;99.90;;;;;;5025499;28;20416;-80
2021/12/08 08:13:57;;;;;;;8.43;3.10;;;5.40;99.90;;;;;;5021287;28;20061;-80
2021/12/08 08:16:27;;;;;;;8.60;2.85;;;5.40;99.90;;;;;;5023580;28;20073;-80
2021/12/08 08:19:02;;;;;;;10.27;2.83;;;5.40;99.90;;;;;;5025548;28;20038;-80
2021/12/08 08:21:37;;;;;;;9.35;2.80;;;5.30;99.90;;;;;;4992122;28;20046;-80
2021/12/08 08:24:05;;;;;;;10.77;2.72;;;5.40;99.90;;;;;;4990088;28;20044;-80
2021/12/08 08:26:31;;;;;;;9.15;2.60;;;5.30;99.90;;;;;;5001789;28;20045;-80
2021/12/08 08:28:57;;;;;;;10.07;2.65;;;5.30;99.90;;;;;;5026077;28;20049;-80
2021/12/08 08:31:29;;;;;;;6.95;2.40;;;5.30;99.90;;;;;;5005011;28;20092;-80
2021/12/08 08:33:55;;;;;;;11.35;2.38;;;5.30;99.90;;;;;;5009833;28;20037;-80
2021/12/08 08:36:24;;;;;;;11.52;2.45;;;5.40;99.90;;;;;;5025069;28;20045;-80
2021/12/08 08:39:14;;;;;;;10.77;2.65;;;5.50;99.90;;;;;;4992490;28;20187;-80
2021/12/08 08:41:44;;;;;;;11.43;2.47;;;5.50;99.90;;;;;;4993987;28;20044;-80
2021/12/08 08:44:25;;;;;;;9.48;2.85;;;5.50;99.90;;;;;;4993638;28;20424;-80
2021/12/08 08:46:54;;;;;;;10.57;2.55;;;5.60;99.90;;;;;;5025633;28;20076;-80
2021/12/08 08:49:26;;;;;;;9.82;2.13;;;5.60;99.90;;;;;;5010897;28;20563;-80
2021/12/08 08:52:05;;;;;;;10.30;2.50;;;5.60;99.90;;;;;;5009157;28;20100;-80
2021/12/08 08:54:35;;;;;;;12.20;2.30;;;5.60;99.90;;;;;;5009772;28;20574;-80
2021/12/08 08:57:17;;;;;;;9.45;2.53;;;5.70;99.90;;;;;;5021467;28;20462;-80
2021/12/08 08:59:51;;;;;;;8.52;2.33;;;5.70;99.90;;;;;;5007319;28;20042;-80
2021/12/08 09:02:26;;;;;;;9.02;2.40;;;5.70;99.90;;;;;;4995987;28;20080;-80
2021/12/08 09:04:56;;;;;;;10.30;2.65;;;5.60;99.90;;;;;;5010983;28;20092;-80
2021/12/08 09:07:27;;;;;;;12.70;2.72;;;5.70;99.90;;;;;;4994431;28;20105;-80
2021/12/08 09:09:57;;;;;;;8.95;2.38;;;5.80;99.90;;;;;;4995354;28;20097;-80
2021/12/08 09:12:40;;;;;;;9.20;2.60;;;6.00;99.90;;;;;;5011836;28;20034;-80
2021/12/08 09:15:29;;;;;;;10.98;2.53;;;6.00;99.90;;;;;;5005958;28;20125;-80
2021/12/08 09:18:05;;;;;;;9.68;2.42;;;6.20;99.90;;;;;;4999492;28;20050;-80
2021/12/08 09:20:54;;;;;;;9.43;2.55;;;6.30;99.90;;;;;;5011174;28;20041;-80
2021/12/08 09:23:41;;;;;;;11.90;2.67;;;6.40;99.90;;;;;;5010481;28;20065;-80
2021/12/08 09:26:11;;;;;;;10.40;2.42;;;6.50;99.90;;;;;;5007417;28;20042;-80
2021/12/08 09:28:45;;;;;;;10.63;2.42;;;6.60;99.90;;;;;;5010785;28;20101;-80
2021/12/08 09:31:18;;;;;;;12.60;2.70;;;6.80;99.90;;;;;;5007514;28;20123;-80
2021/12/08 09:33:54;;;;;;;9.65;2.47;;;6.80;99.90;;;;;;5006778;28;20034;-80
2021/12/08 09:36:29;;;;;;;11.98;2.90;;;6.70;99.90;;;;;;4993829;28;20041;-79
2021/12/08 09:39:05;;;;;;;8.18;2.53;;;6.60;99.90;;;;;;4994635;28;20044;-80
2021/12/08 09:41:40;;;;;;;10.63;2.70;;;6.50;99.90;;;;;;5011281;28;20061;-80
2021/12/08 09:44:32;;;;;;;9.38;2.60;;;6.40;99.90;;;;;;5011248;28;20077;-80
2021/12/08 09:46:58;;;;;;;9.82;2.65;;;6.30;99.90;;;;;;5010865;28;20054;-80
2021/12/08 09:49:26;;;;;;;11.50;2.90;;;6.30;99.90;;;;;;4994205;28;20052;-80
2021/12/08 09:51:54;;;;;;;11.95;2.83;;;6.30;99.90;;;;;;4990839;28;20045;-80
2021/12/08 09:54:21;;;;;;;9.73;2.72;;;6.30;99.90;;;;;;5011452;28;20046;-80
2021/12/08 09:56:50;;;;;;;12.85;2.80;;;6.30;99.90;;;;;;4994352;28;20505;-80
2021/12/08 09:59:16;;;;;;;10.60;2.90;;;6.30;99.90;;;;;;5008196;28;20049;-80
2021/12/08 10:01:43;;;;;;;10.40;2.80;;;6.30;99.90;;;;;;5004849;28;20116;-80
2021/12/08 10:04:11;;;;;;;11.45;3.00;;;6.30;99.90;;;;;;4988518;28;20042;-80
2021/12/08 10:06:40;;;;;;;12.00;3.20;;;6.30;99.90;;;;;;5006501;28;20053;-80
2021/12/08 10:09:07;;;;;;;11.00;2.95;;;6.30;99.90;;;;;;5013676;28;20045;-80
2021/12/08 10:11:33;;;;;;;10.20;2.92;;;6.20;99.90;;;;;;5008284;28;20050;-80
2021/12/08 10:14:02;;;;;;;14.85;3.30;;;6.30;99.90;;;;;;5004741;28;20046;-80
2021/12/08 10:16:28;;;;;;;13.43;3.20;;;6.30;99.90;;;;;;5007990;28;20045;-80
2021/12/08 10:18:55;;;;;;;11.07;2.88;;;6.40;99.90;;;;;;4975464;28;20073;-80
2021/12/08 10:21:30;;;;;;;9.45;3.03;;;6.40;99.90;;;;;;5006165;28;20045;-80
2021/12/08 10:23:56;;;;;;;9.63;2.80;;;6.50;99.90;;;;;;5004610;28;20080;-80
2021/12/08 10:26:26;;;;;;;11.30;2.65;;;6.50;99.90;;;;;;5024426;28;20041;-80
2021/12/08 10:28:55;;;;;;;10.63;2.70;;;6.60;99.90;;;;;;5002775;28;20391;-80
2021/12/08 10:31:27;;;;;;;10.18;2.47;;;6.60;99.90;;;;;;5005693;28;20042;-80
2021/12/08 10:34:05;;;;;;;8.55;2.88;;;6.60;99.90;;;;;;4992081;28;20036;-80
2021/12/08 10:36:48;;;;;;;11.02;3.00;;;6.70;99.90;;;;;;5007103;28;20056;-80
2021/12/08 10:39:35;;;;;;;9.98;2.70;;;6.80;99.90;;;;;;5004283;28;20110;-80
2021/12/08 10:42:04;;;;;;;9.60;2.50;;;6.80;99.90;;;;;;5003077;28;20417;-80
2021/12/08 10:44:43;;;;;;;12.45;2.90;;;6.80;99.90;;;;;;5023843;28;20052;-80
2021/12/08 10:47:10;;;;;;;10.65;2.70;;;6.70;99.90;;;;;;5008160;28;20124;-80
2021/12/08 10:55:31;;;;;;;12.18;2.60;;;6.50;99.90;;;;;;4995669;28;20053;-80
2021/12/08 10:57:57;;;;;;;10.00;2.72;;;6.40;99.90;;;;;;4991523;28;20077;-80
2021/12/08 11:00:33;;;;;;;8.63;2.72;;;6.50;99.90;;;;;;4989774;28;20049;-80
2021/12/08 11:03:02;;;;;;;9.35;2.83;;;6.60;99.90;;;;;;5008337;28;20049;-80
2021/12/08 11:05:32;;;;;;;11.68;3.20;;;6.60;99.90;;;;;;4990537;28;20042;-80
2021/12/08 11:08:02;;;;;;;8.35;2.58;;;6.60;99.90;;;;;;5004418;28;20121;-80
2021/12/08 11:10:34;;;;;;;7.85;2.60;;;6.80;99.90;;;;;;5005685;28;20068;-80
2021/12/08 11:13:00;;;;;;;9.30;2.70;;;6.80;99.90;;;;;;4989124;28;20058;-80
2021/12/08 11:15:29;;;;;;;10.43;2.80;;;6.80;99.90;;;;;;5021526;28;20042;-80
2021/12/08 11:18:21;;;;;;;11.30;2.40;;;6.80;99.90;;;;;;5011616;28;20072;-80
2021/12/08 11:21:00;;;;;;;9.60;2.70;;;6.90;99.90;;;;;;5003609;28;20075;-80
2021/12/08 11:23:47;;;;;;;10.18;2.60;;;6.80;99.90;;;;;;5008036;28;20501;-80
2021/12/08 11:26:21;;;;;;;10.88;2.70;;;6.90;99.90;;;;;;5006086;28;20053;-80
2021/12/08 11:29:04;;;;;;;10.82;2.60;;;6.80;99.90;;;;;;5018000;28;20041;-80
2021/12/08 11:31:38;;;;;;;11.07;2.60;;;6.80;99.90;;;;;;5018317;28;20044;-80
2021/12/08 11:34:10;;;;;;;9.88;2.60;;;6.70;99.90;;;;;;4998135;28;20036;-80
2021/12/08 11:36:38;;;;;;;12.55;3.10;;;6.60;99.90;;;;;;5007946;28;20038;-80
2021/12/08 11:39:17;;;;;;;10.05;2.55;;;6.60;99.90;;;;;;4988111;28;20398;-80
2021/12/08 11:41:44;;;;;;;13.57;2.80;;;6.60;99.90;;;;;;5003776;28;20050;-80
2021/12/08 11:44:12;;;;;;;10.40;2.58;;;6.60;99.90;;;;;;5009276;28;20038;-80
2021/12/08 11:46:47;;;;;;;9.88;2.60;;;6.50;99.90;;;;;;5004422;28;20033;-80
2021/12/08 11:49:13;;;;;;;9.68;2.70;;;6.60;99.90;;;;;;5004041;28;20394;-80
2021/12/08 11:51:42;;;;;;;13.20;2.65;;;6.70;99.90;;;;;;5005505;28;20053;-80
2021/12/08 11:54:22;;;;;;;10.18;2.58;;;6.70;99.90;;;;;;5022484;28;20066;-80
2021/12/08 11:56:48;;;;;;;10.18;2.70;;;6.60;99.90;;;;;;4993531;28;20049;-80
2021/12/08 11:59:14;;;;;;;8.93;2.65;;;6.60;99.90;;;;;;4999375;28;20068;-80
2021/12/08 12:01:40;;;;;;;9.23;2.80;;;6.50;99.90;;;;;;5001308;28;20046;-80
2021/12/08 12:04:10;;;;;;;8.40;2.67;;;6.50;99.90;;;;;;4987368;28;20046;-80
2021/12/08 12:06:36;;;;;;;10.43;2.65;;;6.50;99.90;;;;;;5007336;28;20042;-80
2021/12/08 12:09:06;;;;;;;11.38;3.00;;;6.60;99.90;;;;;;5002921;28;20118;-80
2021/12/08 12:11:32;;;;;;;9.88;3.00;;;6.60;99.90;;;;;;4986902;28;20045;-80
2021/12/08 12:13:59;;;;;;;10.15;2.72;;;6.60;99.90;;;;;;5002145;28;20073;-80
2021/12/08 12:16:26;;;;;;;11.50;3.00;;;6.60;99.90;;;;;;5002398;28;20042;-80
2021/12/08 12:18:56;;;;;;;10.38;2.70;;;6.60;99.90;;;;;;4968949;28;20038;-80
2021/12/08 12:22:03;;;;;;;9.07;2.80;;;6.60;99.90;;;;;;4988097;28;20103;-80
2021/12/08 12:24:43;;;;;;;10.32;3.00;;;6.70;99.90;;;;;;4956869;28;20077;-80
2021/12/08 12:27:37;;;;;;;8.25;2.25;;;6.60;99.90;;;;;;4987828;28;20042;-80
2021/12/08 12:30:14;;;;;;;9.10;2.28;;;6.60;99.90;;;;;;4985367;28;20108;-80
2021/12/08 12:32:54;;;;;;;10.55;2.70;;;6.60;99.90;;;;;;5015256;28;20037;-80
2021/12/08 12:35:25;;;;;;;12.23;2.35;;;6.60;99.90;;;;;;4984052;28;20072;-80
2021/12/08 12:37:59;;;;;;;9.13;2.47;;;6.50;99.90;;;;;;5003005;28;20049;-80
2021/12/08 12:40:38;;;;;;;12.45;2.65;;;6.50;99.90;;;;;;4999834;28;20042;-80
2021/12/08 12:43:05;;;;;;;9.82;2.60;;;6.50;99.90;;;;;;4991577;28;20034;-80
2021/12/08 12:45:43;;;;;;;9.38;2.42;;;6.50;99.90;;;;;;5001079;28;20041;-80
2021/12/08 12:48:14;;;;;;;9.93;2.42;;;6.50;99.90;;;;;;4998122;28;20066;-80
2021/12/08 12:50:56;;;;;;;8.48;2.42;;;6.50;99.90;;;;;;5004454;28;20429;-80
2021/12/08 12:53:51;;;;;;;11.35;2.60;;;6.50;99.90;;;;;;5007368;28;20034;-80
2021/12/08 12:56:27;;;;;;;10.20;2.30;;;6.50;99.90;;;;;;5014024;28;20060;-80
2021/12/08 12:58:55;;;;;;;9.00;2.40;;;6.50;99.90;;;;;;4985798;28;20030;-80
2021/12/08 13:01:31;;;;;;;11.77;2.38;;;6.50;99.90;;;;;;4973172;28;20161;-80
2021/12/08 13:04:09;;;;;;;7.20;2.15;;;6.60;99.90;;;;;;5005261;28;20077;-80
2021/12/08 13:07:05;;;;;;;8.88;2.35;;;6.50;99.90;;;;;;5003864;28;20049;-80
2021/12/08 13:09:37;;;;;;;9.85;2.25;;;6.50;99.90;;;;;;4978719;28;20092;-80
2021/12/08 13:12:27;;;;;;;9.57;2.53;;;6.50;99.90;;;;;;4991278;28;20580;-80
2021/12/08 13:15:17;;;;;;;8.65;2.58;;;6.50;99.90;;;;;;5005829;28;20048;-80
2021/12/08 13:18:28;;;;;;;9.38;2.50;;;6.50;99.90;;;;;;5013246;28;20041;-80
2021/12/08 13:20:57;;;;;;;9.13;2.28;;;6.50;99.90;;;;;;4984637;28;20085;-80
2021/12/08 13:23:27;;;;;;;10.02;2.17;;;6.50;99.90;;;;;;4999433;28;20037;-80
2021/12/08 13:26:05;;;;;;;9.20;2.33;;;6.50;99.90;;;;;;4980466;28;20042;-80
2021/12/08 13:31:19;;;;;;;10.70;2.65;;;6.50;99.90;;;;;;5009057;28;20045;-80
2021/12/08 13:33:55;;;;;;;10.63;2.55;;;6.50;99.90;;;;;;5005662;28;20037;-80
2021/12/08 13:36:21;;;;;;;9.43;2.55;;;6.50;99.90;;;;;;5005272;28;20050;-80
2021/12/08 13:39:27;;;;;;;7.40;2.47;;;6.50;99.90;;;;;;5022122;28;20417;-80
2021/12/08 13:41:55;;;;;;;9.30;2.30;;;6.50;99.90;;;;;;4983989;28;20053;-80
2021/12/08 13:44:49;;;;;;;7.97;2.20;;;6.50;99.90;;;;;;5015243;28;20049;-80
2021/12/08 13:47:37;;;;;;;9.48;2.30;;;6.50;99.90;;;;;;5006681;28;20050;-80
2021/12/08 13:50:02;;;;;;;8.23;2.05;;;6.40;99.90;;;;;;5022111;28;20054;-80
2021/12/08 13:52:31;;;;;;;9.25;2.53;;;6.40;99.90;;;;;;5024084;28;20543;-80
2021/12/08 13:55:19;;;;;;;9.63;2.28;;;6.40;99.90;;;;;;4996154;28;20045;-80
2021/12/08 13:58:07;;;;;;;7.03;2.03;;;6.30;99.90;;;;;;5004547;28;20420;-80
2021/12/08 14:01:01;;;;;;;9.18;2.15;;;6.30;99.90;;;;;;4989376;28;20045;-80
2021/12/08 14:03:42;;;;;;;9.10;2.50;;;6.30;99.90;;;;;;4968101;28;20133;-80
2021/12/08 14:06:10;;;;;;;8.75;2.17;;;6.30;99.90;;;;;;4989189;28;20041;-80
2021/12/08 14:08:38;;;;;;;8.15;2.08;;;6.30;99.90;;;;;;5007056;28;20041;-80
2021/12/08 14:11:13;;;;;;;9.85;2.45;;;6.30;99.90;;;;;;4990950;28;20077;-80